createdAt,value
2018-09-23T00:01:37.983Z,46.41
2018-09-23T00:04:07.047Z,48.89
2018-09-23T00:06:36.131Z,46.79
2018-09-23T00:09:07.005Z,45.77
2018-09-23T00:11:36.084Z,47.65
2018-09-23T00:14:05.149Z,45.76
2018-09-23T00:16:34.250Z,45.04
2018-09-23T00:19:03.304Z,45.42
2018-09-23T00:21:32.338Z,48.30
2018-09-23T00:24:01.693Z,51.45
2018-09-23T00:26:30.725Z,50.91
2018-09-23T00:28:59.754Z,49.16
2018-09-23T00:31:29.189Z,51.13
2018-09-23T00:33:58.196Z,50.71
2018-09-23T00:36:27.230Z,49.18
2018-09-23T00:38:56.313Z,50.85
2018-09-23T00:41:25.348Z,50.53
2018-09-23T00:43:54.387Z,50.41
2018-09-23T00:46:23.708Z,50.14
2018-09-23T00:48:52.733Z,48.85
2018-09-23T00:51:21.764Z,49.72
2018-09-23T00:53:50.822Z,49.40
2018-09-23T00:56:19.852Z,48.28
2018-09-23T00:58:48.876Z,48.81
2018-09-23T01:01:17.954Z,50.55
2018-09-23T01:03:46.997Z,51.10
2018-09-23T01:06:16.028Z,48.10
2018-09-23T01:08:45.124Z,48.43
2018-09-23T01:11:14.156Z,48.78
2018-09-23T01:13:43.165Z,50.18
2018-09-23T01:16:12.517Z,51.01
2018-09-23T01:18:41.571Z,48.74
2018-09-23T01:21:10.613Z,47.96
2018-09-23T01:23:39.975Z,50.37
2018-09-23T01:26:09.152Z,48.78
2018-09-23T01:28:38.643Z,50.02
2018-09-23T01:31:07.765Z,48.77
2018-09-23T01:33:36.779Z,48.54
2018-09-23T01:36:06.322Z,48.51
2018-09-23T01:38:35.658Z,48.73
2018-09-23T01:41:04.717Z,48.56
2018-09-23T01:43:33.728Z,49.00
2018-09-23T01:46:03.207Z,49.11
2018-09-23T01:48:32.256Z,48.98
2018-09-23T01:51:01.412Z,49.07
2018-09-23T01:53:30.463Z,49.99
2018-09-23T01:55:59.497Z,50.58
2018-09-23T01:58:28.569Z,50.98
2018-09-23T02:00:57.898Z,50.69
2018-09-23T02:03:26.935Z,50.91
2018-09-23T02:05:55.945Z,52.13
2018-09-23T02:08:25.042Z,51.99
2018-09-23T02:10:54.124Z,51.90
2018-09-23T02:13:23.141Z,51.64
2018-09-23T02:15:52.485Z,51.86
2018-09-23T02:18:21.516Z,51.46
2018-09-23T02:20:50.606Z,50.20
2018-09-23T02:23:19.654Z,49.12
2018-09-23T02:25:48.667Z,49.93
2018-09-23T02:28:17.691Z,49.81
2018-09-23T02:30:47.088Z,49.32
2018-09-23T02:33:16.097Z,49.36
2018-09-23T02:35:45.129Z,49.03
2018-09-23T02:38:14.205Z,49.84
2018-09-23T02:40:43.241Z,50.25
2018-09-23T02:43:12.273Z,49.46
2018-09-23T02:45:41.586Z,50.67
2018-09-23T02:48:10.701Z,50.53
2018-09-23T02:50:39.697Z,50.50
2018-09-23T02:53:08.773Z,52.29
2018-09-23T02:55:38.516Z,52.28
2018-09-23T02:58:07.541Z,49.99
2018-09-23T03:00:36.903Z,49.85
2018-09-23T03:03:05.933Z,50.31
2018-09-23T03:05:34.966Z,50.04
2018-09-23T03:08:04.037Z,51.19
2018-09-23T03:10:33.073Z,49.45
2018-09-23T03:13:02.097Z,49.07
2018-09-23T03:15:31.501Z,49.10
2018-09-23T03:18:00.515Z,48.14
2018-09-23T03:20:29.530Z,48.35
2018-09-23T03:22:58.617Z,48.40
2018-09-23T03:25:27.654Z,47.65
2018-09-23T03:27:56.735Z,48.41
2018-09-23T03:30:26.105Z,48.28
2018-09-23T03:32:55.154Z,47.98
2018-09-23T03:35:24.161Z,48.16
2018-09-23T03:37:53.229Z,47.71
2018-09-23T03:40:22.258Z,47.78
2018-09-23T03:42:51.472Z,48.11
2018-09-23T03:45:20.907Z,52.25
2018-09-23T03:47:49.938Z,50.84
2018-09-23T03:50:18.970Z,53.17
2018-09-23T03:52:48.040Z,53.21
2018-09-23T03:55:17.060Z,53.16
2018-09-23T03:57:46.053Z,53.85
2018-09-23T04:00:15.469Z,54.10
2018-09-23T04:02:44.509Z,53.77
2018-09-23T04:05:13.545Z,53.29
2018-09-23T04:07:42.633Z,57.85
2018-09-23T04:10:11.699Z,54.37
2018-09-23T04:12:40.711Z,54.96
2018-09-23T04:15:10.278Z,54.63
2018-09-23T04:17:39.343Z,53.10
2018-09-23T04:20:08.386Z,56.22
2018-09-23T04:22:41.490Z,57.90
2018-09-23T04:25:10.613Z,58.03
2018-09-23T04:27:39.663Z,57.10
2018-09-23T04:30:09.206Z,60.78
2018-09-23T04:32:39.234Z,61.85
2018-09-23T04:35:08.305Z,64.01
2018-09-23T04:37:37.455Z,63.75
2018-09-23T04:40:06.556Z,59.49
2018-09-23T04:42:36.165Z,64.81
2018-09-23T04:45:05.702Z,65.97
2018-09-23T04:47:35.679Z,63.57
2018-09-23T04:50:04.809Z,65.79
2018-09-23T04:52:34.283Z,65.36
2018-09-23T04:55:03.472Z,65.44
2018-09-23T04:57:32.660Z,64.19
2018-09-23T05:00:02.082Z,62.43
2018-09-23T05:02:31.172Z,63.82
2018-09-23T05:05:00.281Z,59.61
2018-09-23T05:07:29.542Z,61.43
2018-09-23T05:09:58.640Z,64.38
2018-09-23T05:12:27.715Z,64.67
2018-09-23T05:14:56.842Z,61.89
2018-09-23T05:17:25.969Z,62.13
2018-09-23T05:19:55.114Z,63.54
2018-09-23T05:22:24.565Z,63.61
2018-09-23T05:24:53.653Z,64.25
2018-09-23T05:27:22.783Z,62.59
2018-09-23T05:29:52.874Z,61.34
2018-09-23T05:32:22.593Z,60.45
2018-09-23T05:34:52.010Z,59.19
2018-09-23T05:37:21.450Z,57.73
2018-09-23T05:39:50.568Z,55.48
2018-09-23T05:42:19.712Z,64.66
2018-09-23T05:44:48.870Z,60.57
2018-09-23T05:47:17.946Z,62.83
2018-09-23T05:49:47.042Z,62.95
2018-09-23T05:52:16.180Z,64.91
2018-09-23T05:54:45.243Z,62.55
2018-09-23T05:57:15.256Z,57.62
2018-09-23T05:59:44.383Z,55.88
2018-09-23T06:02:13.737Z,57.41
2018-09-23T06:04:42.929Z,58.51
2018-09-23T06:07:12.142Z,56.54
2018-09-23T06:09:41.246Z,53.82
2018-09-23T06:12:10.374Z,54.00
2018-09-23T06:14:39.782Z,53.48
2018-09-23T06:17:09.137Z,50.71
2018-09-23T06:19:38.235Z,51.33
2018-09-23T06:22:07.448Z,53.25
2018-09-23T06:24:36.566Z,51.13
2018-09-23T06:27:05.979Z,50.73
2018-09-23T06:29:35.513Z,51.51
2018-09-23T06:32:04.618Z,50.70
2018-09-23T06:34:34.501Z,51.87
2018-09-23T06:37:03.840Z,52.16
2018-09-23T06:39:33.890Z,52.67
2018-09-23T06:42:03.025Z,51.11
2018-09-23T06:44:32.160Z,51.50
2018-09-23T06:47:01.827Z,50.53
2018-09-23T06:49:31.049Z,48.08
2018-09-23T06:52:00.180Z,50.94
2018-09-23T06:54:29.339Z,47.87
2018-09-23T06:56:58.491Z,49.34
2018-09-23T06:59:27.991Z,50.71
2018-09-23T07:01:57.083Z,46.55
2018-09-23T07:04:26.218Z,45.83
2018-09-23T07:06:56.300Z,47.38
2018-09-23T07:09:25.415Z,46.62
2018-09-23T07:11:54.536Z,46.54
2018-09-23T07:14:23.757Z,46.56
2018-09-23T07:16:53.625Z,45.77
2018-09-23T07:19:22.715Z,45.25
2018-09-23T07:21:51.872Z,44.85
2018-09-23T07:24:20.981Z,44.58
2018-09-23T07:26:51.024Z,46.49
2018-09-23T07:29:20.456Z,43.86
2018-09-23T07:31:49.519Z,43.40
2018-09-23T07:34:18.676Z,44.23
2018-09-23T07:36:48.172Z,43.35
2018-09-23T07:39:17.261Z,43.83
2018-09-23T07:41:46.395Z,44.47
2018-09-23T07:44:15.967Z,43.76
2018-09-23T07:46:45.030Z,43.75
2018-09-23T07:49:14.131Z,43.27
2018-09-23T07:51:43.583Z,43.52
2018-09-23T07:54:13.447Z,42.07
2018-09-23T07:56:42.587Z,41.09
2018-09-23T07:59:12.112Z,41.43
2018-09-23T08:01:41.209Z,41.39
2018-09-23T08:04:10.358Z,41.57
2018-09-23T08:06:39.805Z,40.63
2018-09-23T08:09:09.920Z,42.08
2018-09-23T08:11:39.717Z,40.21
2018-09-23T08:14:10.049Z,41.00
2018-09-23T08:16:39.234Z,40.49
2018-09-23T08:19:08.799Z,40.27
2018-09-23T08:21:38.300Z,40.59
2018-09-23T08:24:07.458Z,39.61
2018-09-23T08:26:36.723Z,38.84
2018-09-23T08:29:05.962Z,37.33
2018-09-23T08:31:35.928Z,37.19
2018-09-23T08:34:05.126Z,37.53
2018-09-23T08:36:34.316Z,37.96
2018-09-23T08:39:03.625Z,36.89
2018-09-23T08:41:33.121Z,38.09
2018-09-23T08:44:02.823Z,37.10
2018-09-23T08:46:31.995Z,36.02
2018-09-23T08:49:02.607Z,35.70
2018-09-23T08:51:33.148Z,34.99
2018-09-23T08:54:02.326Z,35.88
2018-09-23T08:56:31.481Z,34.86
2018-09-23T08:59:01.245Z,35.04
2018-09-23T09:01:30.384Z,34.30
2018-09-23T09:04:00.312Z,35.34
2018-09-23T09:06:29.468Z,33.97
2018-09-23T09:08:58.557Z,34.03
2018-09-23T09:11:27.699Z,33.08
2018-09-23T09:13:57.802Z,34.25
2018-09-23T09:16:26.962Z,33.53
2018-09-23T09:18:56.094Z,33.26
2018-09-23T09:21:25.348Z,31.52
2018-09-23T09:23:54.531Z,32.71
2018-09-23T09:26:23.674Z,31.77
2018-09-23T09:28:54.109Z,33.74
2018-09-23T09:31:23.483Z,32.98
2018-09-23T09:33:52.626Z,31.60
2018-09-23T09:36:21.834Z,33.94
2018-09-23T09:38:50.984Z,33.63
2018-09-23T09:41:20.155Z,31.79
2018-09-23T09:43:49.769Z,31.87
2018-09-23T09:46:18.890Z,32.67
2018-09-23T09:48:51.475Z,31.83
2018-09-23T09:51:21.061Z,31.27
2018-09-23T09:53:50.842Z,31.18
2018-09-23T09:56:19.951Z,31.28
2018-09-23T09:58:49.162Z,30.66
2018-09-23T10:01:18.388Z,31.75
2018-09-23T10:03:47.582Z,32.19
2018-09-23T10:06:17.049Z,31.93
2018-09-23T10:08:46.212Z,31.44
2018-09-23T10:11:15.340Z,30.57
2018-09-23T10:13:45.304Z,31.22
2018-09-23T10:16:14.442Z,29.86
2018-09-23T10:18:43.660Z,30.94
2018-09-23T10:21:13.472Z,31.47
2018-09-23T10:23:43.218Z,30.73
2018-09-23T10:26:16.125Z,30.86
2018-09-23T10:28:45.288Z,29.91
2018-09-23T10:31:14.383Z,29.33
2018-09-23T10:33:43.792Z,29.00
2018-09-23T10:36:12.980Z,29.87
2018-09-23T10:38:42.018Z,29.35
2018-09-23T10:41:11.222Z,32.60
2018-09-23T10:43:40.293Z,32.38
2018-09-23T10:46:09.425Z,31.31
2018-09-23T10:48:38.939Z,31.79
2018-09-23T10:51:08.513Z,30.62
2018-09-23T10:53:37.638Z,29.44
2018-09-23T10:56:06.826Z,27.51
2018-09-23T10:58:35.922Z,28.09
2018-09-23T11:01:05.125Z,31.08
2018-09-23T11:03:34.256Z,28.67
2018-09-23T11:06:03.556Z,27.59
2018-09-23T11:08:32.633Z,28.00
2018-09-23T11:11:01.814Z,27.43
2018-09-23T11:13:30.932Z,26.45
2018-09-23T11:16:00.017Z,27.34
2018-09-23T11:18:29.197Z,26.76
2018-09-23T11:20:58.304Z,25.41
2018-09-23T11:23:27.487Z,25.73
2018-09-23T11:25:56.589Z,29.10
2018-09-23T11:28:25.714Z,27.39
2018-09-23T11:30:54.860Z,26.31
2018-09-23T11:33:24.370Z,26.49
2018-09-23T11:35:53.543Z,26.13
2018-09-23T11:38:22.754Z,24.90
2018-09-23T11:40:51.983Z,25.73
2018-09-23T11:43:21.121Z,26.25
2018-09-23T11:45:50.291Z,25.83
2018-09-23T11:48:20.708Z,26.14
2018-09-23T11:50:49.829Z,25.75
2018-09-23T11:53:19.585Z,27.21
2018-09-23T11:55:49.205Z,26.42
2018-09-23T11:58:18.277Z,26.14
2018-09-23T12:00:47.457Z,28.04
2018-09-23T12:03:16.667Z,26.57
2018-09-23T12:05:46.377Z,26.46
2018-09-23T12:08:15.696Z,26.91
2018-09-23T12:10:45.333Z,26.19
2018-09-23T12:13:14.613Z,26.29
2018-09-23T12:15:46.721Z,26.50
2018-09-23T12:18:16.250Z,27.15
2018-09-23T12:20:45.840Z,26.96
2018-09-23T12:23:15.359Z,27.17
2018-09-23T12:25:45.555Z,25.31
2018-09-23T12:28:16.429Z,27.37
2018-09-23T12:30:46.400Z,25.59
2018-09-23T12:33:15.542Z,25.32
2018-09-23T12:35:45.153Z,25.96
2018-09-23T12:38:14.952Z,24.99
2018-09-23T12:40:44.066Z,25.61
2018-09-23T12:43:13.584Z,26.74
2018-09-23T12:45:42.860Z,25.57
2018-09-23T12:48:12.690Z,25.60
2018-09-23T12:50:42.469Z,24.79
2018-09-23T12:53:11.589Z,25.63
2018-09-23T12:55:40.802Z,24.14
2018-09-23T12:58:11.246Z,26.09
2018-09-23T13:00:40.370Z,25.29
2018-09-23T13:03:09.454Z,25.37
2018-09-23T13:05:39.012Z,27.30
2018-09-23T13:08:08.528Z,26.79
2018-09-23T13:10:37.669Z,26.53
2018-09-23T13:13:07.277Z,28.42
2018-09-23T13:15:36.473Z,27.60
2018-09-23T13:18:06.550Z,26.25
2018-09-23T13:20:35.741Z,27.07
2018-09-23T13:23:04.901Z,25.61
2018-09-23T13:25:34.052Z,26.22
2018-09-23T13:28:03.547Z,26.27
2018-09-23T13:30:33.652Z,25.29
2018-09-23T13:33:02.801Z,25.23
2018-09-23T13:35:32.120Z,25.79
2018-09-23T13:38:01.333Z,26.18
2018-09-23T13:40:30.627Z,26.47
2018-09-23T13:43:00.158Z,27.49
2018-09-23T13:45:29.340Z,26.91
2018-09-23T13:47:58.509Z,26.01
2018-09-23T13:50:28.391Z,26.24
2018-09-23T13:52:57.474Z,26.09
2018-09-23T13:55:26.628Z,26.16
2018-09-23T13:57:56.090Z,26.08
2018-09-23T14:00:25.256Z,26.08
2018-09-23T14:02:54.417Z,27.27
2018-09-23T14:05:23.906Z,28.51
2018-09-23T14:07:53.218Z,25.76
2018-09-23T14:10:22.345Z,26.80
2018-09-23T14:12:53.287Z,26.83
2018-09-23T14:15:22.446Z,27.59
2018-09-23T14:17:51.576Z,27.01
2018-09-23T14:20:21.155Z,26.93
2018-09-23T14:22:50.274Z,27.31
2018-09-23T14:25:19.362Z,25.34
2018-09-23T14:27:48.651Z,26.21
2018-09-23T14:30:17.782Z,27.78
2018-09-23T14:32:47.285Z,26.46
2018-09-23T14:35:18.132Z,26.29
2018-09-23T14:37:47.268Z,28.29
2018-09-23T14:40:16.388Z,27.11
2018-09-23T14:42:45.822Z,27.25
2018-09-23T14:45:14.929Z,27.31
2018-09-23T14:47:44.966Z,26.63
2018-09-23T14:50:14.106Z,28.57
2018-09-23T14:52:44.244Z,27.32
2018-09-23T14:55:13.453Z,27.92
2018-09-23T14:57:42.868Z,28.18
2018-09-23T15:00:12.019Z,29.57
2018-09-23T15:02:41.138Z,29.40
2018-09-23T15:05:10.314Z,28.04
2018-09-23T15:07:39.492Z,29.60
2018-09-23T15:10:08.702Z,29.36
2018-09-23T15:12:37.940Z,28.71
2018-09-23T15:15:07.979Z,29.64
2018-09-23T15:17:37.144Z,28.41
2018-09-23T15:20:07.271Z,28.03
2018-09-23T15:22:36.440Z,27.35
2018-09-23T15:25:05.625Z,27.80
2018-09-23T15:27:35.332Z,28.09
2018-09-23T15:30:04.586Z,28.13
2018-09-23T15:32:33.736Z,27.75
2018-09-23T15:35:03.285Z,27.69
2018-09-23T15:37:32.378Z,28.00
2018-09-23T15:40:01.455Z,28.36
2018-09-23T15:42:30.590Z,28.03
2018-09-23T15:44:59.714Z,28.24
2018-09-23T15:47:28.866Z,28.15
2018-09-23T15:49:58.035Z,28.12
2018-09-23T15:52:27.207Z,28.11
2018-09-23T15:54:56.317Z,27.82
2018-09-23T15:57:25.463Z,28.59
2018-09-23T15:59:54.630Z,28.73
2018-09-23T16:02:23.725Z,28.14
2018-09-23T16:04:52.860Z,28.00
2018-09-23T16:07:22.724Z,28.42
2018-09-23T16:09:51.829Z,28.14
2018-09-23T16:12:20.955Z,28.41
2018-09-23T16:14:50.054Z,28.56
2018-09-23T16:17:19.131Z,27.84
2018-09-23T16:19:48.246Z,28.21
2018-09-23T16:22:17.386Z,29.00
2018-09-23T16:24:46.477Z,29.20
2018-09-23T16:27:16.894Z,29.26
2018-09-23T16:29:46.017Z,28.39
2018-09-23T16:32:15.165Z,29.48
2018-09-23T16:34:44.594Z,30.23
2018-09-23T16:37:13.691Z,30.70
2018-09-23T16:39:42.814Z,30.87
2018-09-23T16:42:12.247Z,31.34
2018-09-23T16:44:41.417Z,32.00
2018-09-23T16:47:11.394Z,32.60
2018-09-23T16:49:40.871Z,33.08
2018-09-23T16:52:09.969Z,32.03
2018-09-23T16:54:39.133Z,33.33
2018-09-23T16:57:08.611Z,33.37
2018-09-23T16:59:37.745Z,32.40
2018-09-23T17:02:06.886Z,32.84
2018-09-23T17:04:36.373Z,33.69
2018-09-23T17:07:05.526Z,34.03
2018-09-23T17:09:35.490Z,33.81
2018-09-23T17:12:04.685Z,32.91
2018-09-23T17:14:33.759Z,34.46
2018-09-23T17:17:02.849Z,33.63
2018-09-23T17:19:32.536Z,33.38
2018-09-23T17:22:01.736Z,34.39
2018-09-23T17:24:30.859Z,34.45
2018-09-23T17:27:00.650Z,35.95
2018-09-23T17:29:29.826Z,35.02
2018-09-23T17:31:59.310Z,35.69
2018-09-23T17:34:28.508Z,35.06
2018-09-23T17:36:58.240Z,35.03
2018-09-23T17:39:27.348Z,35.05
2018-09-23T17:41:56.856Z,35.99
2018-09-23T17:44:25.936Z,35.94
2018-09-23T17:46:55.791Z,36.64
2018-09-23T17:49:25.289Z,36.33
2018-09-23T17:51:55.434Z,36.85
2018-09-23T17:54:24.522Z,35.59
2018-09-23T17:56:53.998Z,36.04
2018-09-23T17:59:23.151Z,36.59
2018-09-23T18:01:52.364Z,36.54
2018-09-23T18:04:22.326Z,36.59
2018-09-23T18:06:52.448Z,36.74
2018-09-23T18:09:21.657Z,36.18
2018-09-23T18:11:50.802Z,36.52
2018-09-23T18:14:19.872Z,36.67
2018-09-23T18:16:49.025Z,36.78
2018-09-23T18:19:18.455Z,36.58
2018-09-23T18:21:47.599Z,36.62
2018-09-23T18:24:16.710Z,36.41
2018-09-23T18:26:46.301Z,36.10
2018-09-23T18:29:16.319Z,36.92
2018-09-23T18:31:45.480Z,36.85
2018-09-23T18:34:15.027Z,36.68
2018-09-23T18:36:44.525Z,37.87
2018-09-23T18:39:13.720Z,39.24
2018-09-23T18:41:43.241Z,37.73
2018-09-23T18:44:12.368Z,37.62
2018-09-23T18:46:41.665Z,38.89
2018-09-23T18:49:10.930Z,37.98
2018-09-23T18:51:40.042Z,38.09
2018-09-23T18:54:15.218Z,38.21
2018-09-23T18:56:45.217Z,38.55
2018-09-23T18:59:15.098Z,38.29
2018-09-23T19:01:44.640Z,38.78
2018-09-23T19:04:13.824Z,39.45
2018-09-23T19:06:42.986Z,39.63
2018-09-23T19:09:12.549Z,39.74
2018-09-23T19:11:41.768Z,42.22
2018-09-23T19:14:12.095Z,40.44
2018-09-23T19:16:41.891Z,40.65
2018-09-23T19:19:13.577Z,41.30
2018-09-23T19:21:42.790Z,42.62
2018-09-23T19:24:12.728Z,40.54
2018-09-23T19:26:42.916Z,41.55
2018-09-23T19:29:12.512Z,40.96
2018-09-23T19:31:41.728Z,41.64
2018-09-23T19:34:11.719Z,41.37
2018-09-23T19:36:40.929Z,40.96
2018-09-23T19:39:11.133Z,42.84
2018-09-23T19:41:40.596Z,42.69
2018-09-23T19:44:10.478Z,42.61
2018-09-23T19:46:39.701Z,43.51
2018-09-23T19:49:08.875Z,43.53
2018-09-23T19:51:38.408Z,43.97
2018-09-23T19:54:07.495Z,44.40
2018-09-23T19:56:37.694Z,44.66
2018-09-23T19:59:07.283Z,45.95
2018-09-23T20:01:36.797Z,45.50
2018-09-23T20:04:05.933Z,46.13
2018-09-23T20:06:36.012Z,46.13
2018-09-23T20:09:06.536Z,45.99
2018-09-23T20:11:35.638Z,45.88
2018-09-23T20:14:04.869Z,46.40
2018-09-23T20:16:34.040Z,48.09
2018-09-23T20:19:03.151Z,47.75
2018-09-23T20:21:32.438Z,46.88
2018-09-23T20:24:02.135Z,49.45
2018-09-23T20:26:31.322Z,50.23
2018-09-23T20:29:01.704Z,48.71
2018-09-23T20:31:30.848Z,48.34
2018-09-23T20:33:59.992Z,48.69
2018-09-23T20:36:29.446Z,49.72
2018-09-23T20:38:58.624Z,50.52
2018-09-23T20:41:27.739Z,49.89
2018-09-23T20:43:58.028Z,50.23
2018-09-23T20:58:19.617Z,46.68
2018-09-23T21:00:49.161Z,46.21
2018-09-23T21:03:18.830Z,46.31
2018-09-23T21:05:47.941Z,48.34
2018-09-23T21:08:18.260Z,49.82
2018-09-23T21:10:47.369Z,51.57
2018-09-23T21:13:16.824Z,50.99
2018-09-23T21:15:46.698Z,51.24
2018-09-23T21:18:15.773Z,52.62
2018-09-23T21:20:44.830Z,52.27
2018-09-23T21:23:14.294Z,52.26
2018-09-23T21:25:43.409Z,55.26
2018-09-23T21:28:13.233Z,54.40
2018-09-23T21:30:44.823Z,54.39
2018-09-23T21:33:14.285Z,53.54
2018-09-23T21:35:43.431Z,53.44
2018-09-23T21:38:12.650Z,56.68
2018-09-23T21:40:41.916Z,54.57
2018-09-23T21:43:11.112Z,54.71
2018-09-23T21:45:40.600Z,56.81
2018-09-23T21:48:09.780Z,56.48
2018-09-23T21:50:39.423Z,56.20
2018-09-23T21:53:08.824Z,54.58
2018-09-23T21:55:37.922Z,56.74
2018-09-23T21:58:07.014Z,59.17
2018-09-23T22:00:41.106Z,61.28
2018-09-23T22:03:10.620Z,58.51
2018-09-23T22:05:40.104Z,60.17
2018-09-23T22:08:09.965Z,61.13
2018-09-23T22:10:39.436Z,62.39
2018-09-23T22:13:08.887Z,63.15
2018-09-23T22:15:38.279Z,64.67
2018-09-23T22:18:07.414Z,64.73
2018-09-23T22:20:36.474Z,65.01
2018-09-23T22:23:06.533Z,62.32
2018-09-23T22:25:35.584Z,59.25
2018-09-23T22:28:04.793Z,58.67
2018-09-23T22:30:34.207Z,59.26
2018-09-23T22:33:03.271Z,59.40
2018-09-23T22:35:32.341Z,60.53
2018-09-23T22:38:01.455Z,58.93
2018-09-23T22:40:30.490Z,60.84
2018-09-23T22:42:59.620Z,62.62
2018-09-23T22:45:29.419Z,64.92
2018-09-23T22:47:58.498Z,68.16
2018-09-23T22:50:27.594Z,68.38
2018-09-23T22:52:56.696Z,70.96
2018-09-23T22:55:25.746Z,72.18
2018-09-23T22:57:54.804Z,75.25
2018-09-23T23:00:23.901Z,77.76
2018-09-23T23:02:53.061Z,82.53
2018-09-23T23:05:22.119Z,84.41
2018-09-23T23:07:51.522Z,85.83
2018-09-23T23:10:20.550Z,87.94
2018-09-23T23:12:49.728Z,89.30
2018-09-23T23:15:19.438Z,93.33
2018-09-23T23:17:48.527Z,95.79
2018-09-23T23:20:18.132Z,97.37
2018-09-23T23:22:47.573Z,98.37
2018-09-23T23:25:16.643Z,99.54
2018-09-23T23:27:45.700Z,100.00
2018-09-23T23:30:14.823Z,99.23
2018-09-23T23:32:43.879Z,99.23
2018-09-23T23:35:12.985Z,100.00
2018-09-23T23:37:42.462Z,100.00
2018-09-23T23:40:12.556Z,100.00
2018-09-23T23:42:41.634Z,100.00
2018-09-23T23:45:11.077Z,100.00
2018-09-23T23:47:41.082Z,100.00
2018-09-23T23:50:10.169Z,100.00
2018-09-23T23:52:39.882Z,97.26
2018-09-23T23:55:08.942Z,98.31
2018-09-23T23:57:38.004Z,97.77
